CCA2838 ZSAM-ZBTJ
Flight info
| Callsign | CCA2838 |
|---|---|
| Flight time | 2h 27m |
| Altitude | 37100 |
| Route | DOVPU5U DOVPU W643 FOC W644 LEVGU/K0857S1100 W644 AKAVO/K0850S1130 A470 EMRID W135 ADBAS/K0852S1160 W135 DOGVI A470 DPX A593 DALIM W157 BEKDO/K0830S1130 W157 AVBOX AVBOX3H |
| Aircraft | A320/M-SDE3FGHIRWY/LB1 |
Departure
| Time | 2026-04-17 06:47 |
|---|---|
| Airport | Xiamen Gaoqi International Airport (ZSAM) |
Arrival
| Time | 2026-04-17 09:14 |
|---|---|
| Airport | Tianjin Binhai International Airport (ZBTJ) |
| Time | Latitude | Longitude | Altitude | Speed | Heading |
|---|---|---|---|---|---|
| 2026-04-17 06:16 | 24.53682 | 118.12443 | 60 ft | 0 kts | 143° |
| 2026-04-17 06:18 | 24.53682 | 118.12442 | 60 ft | 0 kts | 143° |
| 2026-04-17 06:34 | 24.53683 | 118.12442 | 59 ft | 2 kts | 143° |
| 2026-04-17 06:34 | 24.53696 | 118.12431 | 56 ft | 2 kts | 143° |
| 2026-04-17 06:35 | 24.53709 | 118.12420 | 51 ft | 2 kts | 143° |
| 2026-04-17 06:35 | 24.53723 | 118.12409 | 56 ft | 2 kts | 149° |
| 2026-04-17 06:35 | 24.53738 | 118.12403 | 51 ft | 2 kts | 187° |
| 2026-04-17 06:35 | 24.53754 | 118.12406 | 57 ft | 2 kts | 203° |
| 2026-04-17 06:36 | 24.53769 | 118.12415 | 51 ft | 2 kts | 216° |
| 2026-04-17 06:36 | 24.53781 | 118.12425 | 50 ft | 1 kts | 227° |
| 2026-04-17 06:36 | 24.53784 | 118.12428 | 50 ft | 0 kts | 230° |
| 2026-04-17 06:38 | 24.53780 | 118.12423 | 59 ft | 2 kts | 231° |
| 2026-04-17 06:39 | 24.53769 | 118.12407 | 53 ft | 4 kts | 232° |
| 2026-04-17 06:39 | 24.53749 | 118.12380 | 53 ft | 5 kts | 232° |
| 2026-04-17 06:39 | 24.53722 | 118.12342 | 54 ft | 7 kts | 232° |
| 2026-04-17 06:39 | 24.53694 | 118.12288 | 58 ft | 9 kts | 261° |
| 2026-04-17 06:40 | 24.53732 | 118.12230 | 60 ft | 11 kts | 321° |
| 2026-04-17 06:40 | 24.53765 | 118.12201 | 55 ft | 8 kts | 322° |
| 2026-04-17 06:40 | 24.53762 | 118.12147 | 56 ft | 9 kts | 239° |
| 2026-04-17 06:40 | 24.53721 | 118.12089 | 55 ft | 11 kts | 231° |
| 2026-04-17 06:41 | 24.53671 | 118.12019 | 60 ft | 13 kts | 232° |
| 2026-04-17 06:41 | 24.53613 | 118.11937 | 59 ft | 15 kts | 232° |
| 2026-04-17 06:41 | 24.53546 | 118.11843 | 62 ft | 17 kts | 232° |
| 2026-04-17 06:41 | 24.53470 | 118.11738 | 59 ft | 18 kts | 232° |
| 2026-04-17 06:42 | 24.53402 | 118.11638 | 62 ft | 11 kts | 240° |
| 2026-04-17 06:42 | 24.53398 | 118.11591 | 65 ft | 0 kts | 282° |
| 2026-04-17 06:42 | 24.53398 | 118.11590 | 65 ft | 1 kts | 282° |
| 2026-04-17 06:43 | 24.53401 | 118.11577 | 65 ft | 3 kts | 282° |
| 2026-04-17 06:43 | 24.53404 | 118.11566 | 65 ft | 0 kts | 284° |
| 2026-04-17 06:44 | 24.53404 | 118.11562 | 65 ft | 2 kts | 284° |
| 2026-04-17 06:45 | 24.53409 | 118.11543 | 65 ft | 4 kts | 287° |
| 2026-04-17 06:45 | 24.53422 | 118.11507 | 65 ft | 6 kts | 298° |
| 2026-04-17 06:45 | 24.53461 | 118.11477 | 60 ft | 8 kts | 345° |
| 2026-04-17 06:45 | 24.53512 | 118.11508 | 60 ft | 9 kts | 54° |
| 2026-04-17 06:46 | 24.53556 | 118.11570 | 60 ft | 12 kts | 49° |
| 2026-04-17 06:46 | 24.53639 | 118.11686 | 62 ft | 46 kts | 52° |
| 2026-04-17 06:46 | 24.54004 | 118.12194 | 59 ft | 119 kts | 52° |
| 2026-04-17 06:46 | 24.54637 | 118.13080 | 62 ft | 171 kts | 51° |
| 2026-04-17 06:47 | 24.55393 | 118.14119 | 647 ft | 178 kts | 51° |
| 2026-04-17 06:47 | 24.56184 | 118.15196 | 1304 ft | 184 kts | 51° |
| 2026-04-17 06:47 | 24.56981 | 118.16309 | 2003 ft | 184 kts | 52° |
| 2026-04-17 06:47 | 24.57762 | 118.17413 | 2629 ft | 182 kts | 51° |
| 2026-04-17 06:48 | 24.58534 | 118.18508 | 3190 ft | 181 kts | 51° |
| 2026-04-17 06:48 | 24.59338 | 118.19644 | 3521 ft | 199 kts | 51° |
| 2026-04-17 06:48 | 24.60241 | 118.20914 | 3794 ft | 224 kts | 51° |
| 2026-04-17 06:48 | 24.61257 | 118.22337 | 4253 ft | 250 kts | 50° |
| 2026-04-17 06:49 | 24.62524 | 118.23773 | 4910 ft | 274 kts | 43° |
| 2026-04-17 06:49 | 24.63950 | 118.25247 | 5800 ft | 286 kts | 42° |
| 2026-04-17 06:49 | 24.65432 | 118.26745 | 6752 ft | 293 kts | 41° |
| 2026-04-17 06:49 | 24.66946 | 118.28271 | 7547 ft | 298 kts | 40° |
| 2026-04-17 06:50 | 24.68490 | 118.29831 | 8343 ft | 305 kts | 41° |
| 2026-04-17 06:50 | 24.70063 | 118.31428 | 9112 ft | 311 kts | 41° |
| 2026-04-17 06:50 | 24.71663 | 118.33060 | 9848 ft | 317 kts | 40° |
| 2026-04-17 06:50 | 24.73306 | 118.34739 | 10278 ft | 333 kts | 40° |
| 2026-04-17 06:51 | 24.75022 | 118.36578 | 10519 ft | 356 kts | 43° |
| 2026-04-17 06:51 | 24.76789 | 118.38614 | 10725 ft | 377 kts | 45° |
| 2026-04-17 06:51 | 24.78579 | 118.40763 | 11254 ft | 384 kts | 46° |
| 2026-04-17 06:51 | 24.80382 | 118.42959 | 11933 ft | 389 kts | 46° |
| 2026-04-17 06:52 | 24.82207 | 118.45176 | 12601 ft | 393 kts | 46° |
| 2026-04-17 06:52 | 24.84059 | 118.47405 | 13236 ft | 396 kts | 45° |
| 2026-04-17 06:52 | 24.85937 | 118.49642 | 13848 ft | 400 kts | 45° |
| 2026-04-17 06:52 | 24.87839 | 118.51894 | 14404 ft | 403 kts | 45° |
| 2026-04-17 06:53 | 24.89763 | 118.54151 | 14973 ft | 405 kts | 45° |
| 2026-04-17 06:53 | 24.91707 | 118.56417 | 15507 ft | 409 kts | 44° |
| 2026-04-17 06:53 | 24.93669 | 118.58701 | 16051 ft | 412 kts | 44° |
| 2026-04-17 06:53 | 24.95644 | 118.61005 | 16611 ft | 415 kts | 44° |
| 2026-04-17 06:54 | 24.97635 | 118.63328 | 17170 ft | 418 kts | 45° |
| 2026-04-17 06:54 | 24.99640 | 118.65674 | 17730 ft | 422 kts | 45° |
| 2026-04-17 06:54 | 25.01655 | 118.68038 | 18279 ft | 425 kts | 45° |
| 2026-04-17 06:54 | 25.03690 | 118.70425 | 18751 ft | 429 kts | 45° |
| 2026-04-17 06:55 | 25.05744 | 118.72836 | 19228 ft | 433 kts | 45° |
| 2026-04-17 06:55 | 25.07814 | 118.75268 | 19711 ft | 437 kts | 44° |
| 2026-04-17 06:55 | 25.09905 | 118.77725 | 20215 ft | 441 kts | 44° |
| 2026-04-17 06:55 | 25.12012 | 118.80201 | 20696 ft | 444 kts | 44° |
| 2026-04-17 06:56 | 25.14107 | 118.82664 | 21150 ft | 448 kts | 44° |
| 2026-04-17 06:56 | 25.16275 | 118.85215 | 21608 ft | 451 kts | 44° |
| 2026-04-17 06:56 | 25.18398 | 118.87718 | 22034 ft | 455 kts | 44° |
| 2026-04-17 06:56 | 25.20568 | 118.90276 | 22457 ft | 458 kts | 44° |
| 2026-04-17 06:57 | 25.22755 | 118.92857 | 22869 ft | 461 kts | 44° |
| 2026-04-17 06:57 | 25.24954 | 118.95454 | 23268 ft | 465 kts | 44° |
| 2026-04-17 06:57 | 25.27167 | 118.98069 | 23637 ft | 467 kts | 44° |
| 2026-04-17 06:57 | 25.29402 | 119.00691 | 23977 ft | 470 kts | 44° |
| 2026-04-17 06:58 | 25.31653 | 119.03315 | 24315 ft | 472 kts | 44° |
| 2026-04-17 06:58 | 25.33921 | 119.05948 | 24639 ft | 474 kts | 44° |
| 2026-04-17 06:58 | 25.36203 | 119.08589 | 24968 ft | 476 kts | 44° |
| 2026-04-17 06:58 | 25.38495 | 119.11242 | 25283 ft | 478 kts | 44° |
| 2026-04-17 06:59 | 25.40793 | 119.13911 | 25596 ft | 480 kts | 44° |
| 2026-04-17 06:59 | 25.43099 | 119.16597 | 25903 ft | 483 kts | 44° |
| 2026-04-17 06:59 | 25.45415 | 119.19301 | 26203 ft | 485 kts | 44° |
| 2026-04-17 06:59 | 25.47741 | 119.22019 | 26500 ft | 487 kts | 44° |
| 2026-04-17 07:00 | 25.50077 | 119.24753 | 26799 ft | 490 kts | 44° |
| 2026-04-17 07:00 | 25.52423 | 119.27497 | 27103 ft | 492 kts | 44° |
| 2026-04-17 07:00 | 25.54779 | 119.30252 | 27395 ft | 494 kts | 44° |
| 2026-04-17 07:00 | 25.57144 | 119.33027 | 27688 ft | 497 kts | 44° |
| 2026-04-17 07:01 | 25.59514 | 119.35830 | 27984 ft | 499 kts | 44° |
| 2026-04-17 07:01 | 25.61886 | 119.38644 | 28274 ft | 501 kts | 44° |
| 2026-04-17 07:01 | 25.64273 | 119.41477 | 28556 ft | 503 kts | 44° |
| 2026-04-17 07:01 | 25.66665 | 119.44312 | 28936 ft | 503 kts | 44° |
| 2026-04-17 07:02 | 25.69055 | 119.47138 | 29364 ft | 502 kts | 44° |
| 2026-04-17 07:02 | 25.71443 | 119.49959 | 29789 ft | 501 kts | 44° |
| 2026-04-17 07:02 | 25.73827 | 119.52785 | 30193 ft | 501 kts | 44° |
| 2026-04-17 07:02 | 25.76255 | 119.55542 | 30554 ft | 499 kts | 38° |
| 2026-04-17 07:03 | 25.78974 | 119.57907 | 30959 ft | 495 kts | 29° |
| 2026-04-17 07:03 | 25.81944 | 119.59800 | 31389 ft | 491 kts | 22° |
| 2026-04-17 07:03 | 25.84984 | 119.61522 | 31778 ft | 491 kts | 22° |
| 2026-04-17 07:03 | 25.88028 | 119.63258 | 32117 ft | 492 kts | 22° |
| 2026-04-17 07:04 | 25.91071 | 119.64999 | 32459 ft | 492 kts | 22° |
| 2026-04-17 07:04 | 25.94121 | 119.66737 | 32806 ft | 493 kts | 22° |
| 2026-04-17 07:04 | 25.97135 | 119.68440 | 33155 ft | 493 kts | 21° |
| 2026-04-17 07:04 | 26.00238 | 119.70181 | 33519 ft | 493 kts | 21° |
| 2026-04-17 07:05 | 26.03257 | 119.71866 | 33873 ft | 492 kts | 19° |
| 2026-04-17 07:05 | 26.06415 | 119.73256 | 34188 ft | 484 kts | 9° |
| 2026-04-17 07:05 | 26.09656 | 119.74080 | 34498 ft | 475 kts | 0° |
| 2026-04-17 07:05 | 26.12923 | 119.74363 | 34815 ft | 465 kts | 352° |
| 2026-04-17 07:06 | 26.16129 | 119.74212 | 35133 ft | 460 kts | 349° |
| 2026-04-17 07:06 | 26.19325 | 119.74012 | 35442 ft | 460 kts | 349° |
| 2026-04-17 07:06 | 26.22518 | 119.73811 | 35752 ft | 459 kts | 349° |
| 2026-04-17 07:06 | 26.25705 | 119.73611 | 36053 ft | 458 kts | 348° |
| 2026-04-17 07:07 | 26.28884 | 119.73410 | 36350 ft | 457 kts | 349° |
| 2026-04-17 07:07 | 26.32063 | 119.73209 | 36595 ft | 458 kts | 348° |
| 2026-04-17 07:07 | 26.35240 | 119.73008 | 36896 ft | 457 kts | 348° |
| 2026-04-17 07:07 | 26.38415 | 119.72808 | 37040 ft | 458 kts | 348° |
| 2026-04-17 07:08 | 26.41612 | 119.72604 | 37063 ft | 461 kts | 348° |
| 2026-04-17 07:08 | 26.48041 | 119.72226 | 37059 ft | 465 kts | 350° |
| 2026-04-17 07:09 | 26.54541 | 119.72244 | 37053 ft | 469 kts | 354° |
| 2026-04-17 07:09 | 26.61077 | 119.72528 | 37052 ft | 470 kts | 354° |
| 2026-04-17 07:10 | 26.67612 | 119.72763 | 37060 ft | 470 kts | 353° |
| 2026-04-17 07:10 | 26.74152 | 119.72893 | 37068 ft | 470 kts | 353° |
| 2026-04-17 07:11 | 26.80694 | 119.72996 | 37070 ft | 471 kts | 353° |
| 2026-04-17 07:11 | 26.87248 | 119.73130 | 37072 ft | 471 kts | 353° |
| 2026-04-17 07:12 | 26.93808 | 119.73278 | 37075 ft | 471 kts | 353° |
| 2026-04-17 07:12 | 27.00164 | 119.72436 | 37071 ft | 450 kts | 334° |
| 2026-04-17 07:13 | 27.05688 | 119.69530 | 37076 ft | 433 kts | 320° |
| 2026-04-17 07:13 | 27.10830 | 119.66000 | 37072 ft | 433 kts | 320° |
| 2026-04-17 07:14 | 27.15964 | 119.62489 | 37068 ft | 432 kts | 320° |
| 2026-04-17 07:14 | 27.21099 | 119.58970 | 37073 ft | 432 kts | 320° |
| 2026-04-17 07:15 | 27.26630 | 119.56127 | 37069 ft | 450 kts | 338° |
| 2026-04-17 07:15 | 27.29724 | 119.55594 | 37071 ft | 464 kts | 349° |
| 2026-04-17 07:15 | 27.32971 | 119.55576 | 37077 ft | 468 kts | 352° |
| 2026-04-17 07:16 | 27.39478 | 119.55610 | 37070 ft | 468 kts | 351° |
| 2026-04-17 07:16 | 27.45983 | 119.55625 | 37073 ft | 468 kts | 351° |
| 2026-04-17 07:17 | 27.52491 | 119.55654 | 37069 ft | 467 kts | 351° |
| 2026-04-17 07:17 | 27.62261 | 119.55716 | 37075 ft | 468 kts | 351° |
| 2026-04-17 07:18 | 27.68773 | 119.55756 | 37079 ft | 468 kts | 351° |
| 2026-04-17 07:18 | 27.75289 | 119.55794 | 37079 ft | 468 kts | 351° |
| 2026-04-17 07:19 | 27.81806 | 119.55832 | 37081 ft | 468 kts | 351° |
| 2026-04-17 07:19 | 27.88318 | 119.55867 | 37082 ft | 468 kts | 351° |
| 2026-04-17 07:20 | 27.94796 | 119.55906 | 37080 ft | 469 kts | 350° |
| 2026-04-17 07:20 | 28.01327 | 119.56005 | 37084 ft | 470 kts | 351° |
| 2026-04-17 07:21 | 28.07863 | 119.56126 | 37086 ft | 470 kts | 351° |
| 2026-04-17 07:21 | 28.14409 | 119.56301 | 37086 ft | 472 kts | 352° |
| 2026-04-17 07:22 | 28.20988 | 119.56690 | 37090 ft | 474 kts | 353° |
| 2026-04-17 07:22 | 28.27572 | 119.57124 | 37090 ft | 473 kts | 353° |
| 2026-04-17 07:23 | 28.34141 | 119.57506 | 37094 ft | 473 kts | 352° |
| 2026-04-17 07:23 | 28.40711 | 119.57862 | 37095 ft | 472 kts | 352° |
| 2026-04-17 07:24 | 28.47279 | 119.58219 | 37095 ft | 473 kts | 352° |
| 2026-04-17 07:24 | 28.53858 | 119.58613 | 37090 ft | 474 kts | 353° |
| 2026-04-17 07:25 | 28.60450 | 119.59033 | 37086 ft | 475 kts | 353° |
| 2026-04-17 07:25 | 28.67049 | 119.59455 | 37093 ft | 475 kts | 352° |
| 2026-04-17 07:26 | 28.73607 | 119.59860 | 37093 ft | 475 kts | 352° |
| 2026-04-17 07:26 | 28.80212 | 119.60263 | 37096 ft | 475 kts | 352° |
| 2026-04-17 07:27 | 28.86819 | 119.60672 | 37092 ft | 475 kts | 353° |
| 2026-04-17 07:27 | 28.93425 | 119.61082 | 37098 ft | 476 kts | 352° |
| 2026-04-17 07:28 | 29.00035 | 119.61494 | 37082 ft | 476 kts | 352° |
| 2026-04-17 07:28 | 29.06651 | 119.61908 | 37089 ft | 476 kts | 352° |
| 2026-04-17 07:29 | 29.13269 | 119.62321 | 37095 ft | 476 kts | 352° |
| 2026-04-17 07:29 | 29.19889 | 119.62723 | 37096 ft | 477 kts | 352° |
| 2026-04-17 07:30 | 29.26515 | 119.63121 | 37089 ft | 476 kts | 352° |
| 2026-04-17 07:30 | 29.32021 | 119.63454 | 37090 ft | 477 kts | 352° |
| 2026-04-17 07:31 | 29.39777 | 119.63926 | 37087 ft | 478 kts | 352° |
| 2026-04-17 07:31 | 29.45300 | 119.64267 | 37085 ft | 478 kts | 352° |
| 2026-04-17 07:32 | 29.51958 | 119.64876 | 37082 ft | 490 kts | 1° |
| 2026-04-17 07:32 | 29.55289 | 119.65925 | 37083 ft | 505 kts | 12° |
| 2026-04-17 07:32 | 29.58511 | 119.67669 | 37084 ft | 519 kts | 23° |
| 2026-04-17 07:33 | 29.64573 | 119.72287 | 37074 ft | 524 kts | 26° |
| 2026-04-17 07:33 | 29.70627 | 119.76992 | 37066 ft | 525 kts | 26° |
| 2026-04-17 07:34 | 29.76688 | 119.81704 | 37071 ft | 526 kts | 26° |
| 2026-04-17 07:34 | 29.82766 | 119.86411 | 37082 ft | 527 kts | 26° |
| 2026-04-17 07:35 | 29.88820 | 119.91111 | 37095 ft | 528 kts | 26° |
| 2026-04-17 07:35 | 29.94911 | 119.95850 | 37095 ft | 529 kts | 26° |
| 2026-04-17 07:36 | 30.01014 | 120.00611 | 37095 ft | 530 kts | 26° |
| 2026-04-17 07:36 | 30.07113 | 120.05377 | 37090 ft | 530 kts | 26° |
| 2026-04-17 07:37 | 30.13225 | 120.10152 | 37091 ft | 530 kts | 26° |
| 2026-04-17 07:37 | 30.19336 | 120.14938 | 37094 ft | 531 kts | 26° |
| 2026-04-17 07:38 | 30.25509 | 120.19575 | 37092 ft | 521 kts | 17° |
| 2026-04-17 07:38 | 30.28826 | 120.21082 | 37090 ft | 504 kts | 5° |
| 2026-04-17 07:38 | 30.32206 | 120.21820 | 37091 ft | 486 kts | 353° |
| 2026-04-17 07:39 | 30.35518 | 120.21839 | 37081 ft | 468 kts | 342° |
| 2026-04-17 07:39 | 30.38657 | 120.21199 | 37078 ft | 449 kts | 331° |
| 2026-04-17 07:39 | 30.41533 | 120.19985 | 37075 ft | 433 kts | 321° |
| 2026-04-17 07:39 | 30.44112 | 120.18302 | 37072 ft | 418 kts | 313° |
| 2026-04-17 07:40 | 30.48743 | 120.14321 | 37075 ft | 415 kts | 311° |
| 2026-04-17 07:40 | 30.53406 | 120.10345 | 37080 ft | 417 kts | 311° |
| 2026-04-17 07:41 | 30.58075 | 120.06416 | 37089 ft | 418 kts | 311° |
| 2026-04-17 07:41 | 30.62781 | 120.02451 | 37095 ft | 418 kts | 311° |
| 2026-04-17 07:42 | 30.67480 | 119.98471 | 37096 ft | 418 kts | 311° |
| 2026-04-17 07:42 | 30.72173 | 119.94480 | 37099 ft | 419 kts | 311° |
| 2026-04-17 07:43 | 30.76880 | 119.90481 | 37098 ft | 419 kts | 311° |
| 2026-04-17 07:43 | 30.81577 | 119.86460 | 37097 ft | 419 kts | 311° |
| 2026-04-17 07:44 | 30.86269 | 119.82418 | 37103 ft | 420 kts | 311° |
| 2026-04-17 07:44 | 30.90965 | 119.78367 | 37116 ft | 420 kts | 311° |
| 2026-04-17 07:45 | 30.95674 | 119.74319 | 37110 ft | 421 kts | 310° |
| 2026-04-17 07:45 | 31.00388 | 119.70261 | 37115 ft | 422 kts | 311° |
| 2026-04-17 07:46 | 31.05102 | 119.66195 | 37110 ft | 421 kts | 310° |
| 2026-04-17 07:46 | 31.09780 | 119.62149 | 37107 ft | 422 kts | 310° |
| 2026-04-17 07:47 | 31.14495 | 119.58060 | 37111 ft | 422 kts | 310° |
| 2026-04-17 07:47 | 31.19213 | 119.53972 | 37111 ft | 422 kts | 310° |
| 2026-04-17 07:48 | 31.23934 | 119.49878 | 37116 ft | 423 kts | 310° |
| 2026-04-17 07:48 | 31.28657 | 119.45775 | 37117 ft | 423 kts | 310° |
| 2026-04-17 07:49 | 31.33391 | 119.41673 | 37119 ft | 423 kts | 310° |
| 2026-04-17 07:49 | 31.38107 | 119.37564 | 37123 ft | 423 kts | 310° |
| 2026-04-17 07:50 | 31.42823 | 119.33455 | 37122 ft | 422 kts | 310° |
| 2026-04-17 07:50 | 31.47532 | 119.29340 | 37120 ft | 422 kts | 310° |
| 2026-04-17 07:51 | 31.52241 | 119.25220 | 37120 ft | 422 kts | 310° |
| 2026-04-17 07:51 | 31.56945 | 119.21095 | 37121 ft | 422 kts | 310° |
| 2026-04-17 07:52 | 31.61633 | 119.16953 | 37116 ft | 422 kts | 310° |
| 2026-04-17 07:52 | 31.66264 | 119.12746 | 37117 ft | 418 kts | 308° |
| 2026-04-17 07:53 | 31.70634 | 119.08280 | 37113 ft | 415 kts | 306° |
| 2026-04-17 07:53 | 31.74914 | 119.03746 | 37099 ft | 414 kts | 306° |
| 2026-04-17 07:54 | 31.79234 | 118.99244 | 37109 ft | 415 kts | 307° |
| 2026-04-17 07:54 | 31.81510 | 118.97106 | 37104 ft | 427 kts | 315° |
| 2026-04-17 07:54 | 31.84176 | 118.95420 | 37102 ft | 445 kts | 326° |
| 2026-04-17 07:55 | 31.89971 | 118.92848 | 37106 ft | 449 kts | 327° |
| 2026-04-17 07:55 | 31.95805 | 118.90235 | 37114 ft | 449 kts | 327° |
| 2026-04-17 07:56 | 32.01639 | 118.87606 | 37117 ft | 449 kts | 327° |
| 2026-04-17 07:56 | 32.07475 | 118.84973 | 37123 ft | 449 kts | 327° |
| 2026-04-17 07:57 | 32.13311 | 118.82344 | 37123 ft | 449 kts | 327° |
| 2026-04-17 07:57 | 32.19155 | 118.79711 | 37124 ft | 449 kts | 327° |
| 2026-04-17 07:58 | 32.24997 | 118.77082 | 37121 ft | 449 kts | 327° |
| 2026-04-17 07:58 | 32.30826 | 118.74439 | 37117 ft | 449 kts | 327° |
| 2026-04-17 07:59 | 32.36656 | 118.71796 | 37117 ft | 449 kts | 327° |
| 2026-04-17 07:59 | 32.42497 | 118.69148 | 37119 ft | 450 kts | 327° |
| 2026-04-17 08:00 | 32.48338 | 118.66493 | 37119 ft | 450 kts | 327° |
| 2026-04-17 08:00 | 32.54182 | 118.63830 | 37123 ft | 450 kts | 327° |
| 2026-04-17 08:01 | 32.60026 | 118.61164 | 37124 ft | 450 kts | 327° |
| 2026-04-17 08:01 | 32.65873 | 118.58496 | 37128 ft | 450 kts | 327° |
| 2026-04-17 08:02 | 32.71825 | 118.56026 | 37124 ft | 457 kts | 331° |
| 2026-04-17 08:02 | 32.77956 | 118.53914 | 37098 ft | 460 kts | 333° |
| 2026-04-17 08:03 | 32.84110 | 118.51847 | 37123 ft | 459 kts | 332° |
| 2026-04-17 08:03 | 32.90228 | 118.49694 | 37130 ft | 458 kts | 332° |
| 2026-04-17 08:04 | 32.96319 | 118.47490 | 37132 ft | 457 kts | 331° |
| 2026-04-17 08:04 | 33.02368 | 118.45303 | 37128 ft | 457 kts | 332° |
| 2026-04-17 08:05 | 33.08488 | 118.43109 | 37127 ft | 456 kts | 332° |
| 2026-04-17 08:05 | 33.14570 | 118.40926 | 37121 ft | 456 kts | 331° |
| 2026-04-17 08:06 | 33.20594 | 118.38748 | 37122 ft | 455 kts | 331° |
| 2026-04-17 08:06 | 33.26662 | 118.36559 | 37118 ft | 455 kts | 332° |
| 2026-04-17 08:07 | 33.32727 | 118.34382 | 37117 ft | 455 kts | 332° |
| 2026-04-17 08:07 | 33.38781 | 118.32194 | 37128 ft | 454 kts | 332° |
| 2026-04-17 08:08 | 33.44831 | 118.30004 | 37120 ft | 454 kts | 332° |
| 2026-04-17 08:08 | 33.50877 | 118.27814 | 37123 ft | 454 kts | 332° |
| 2026-04-17 08:09 | 33.56916 | 118.25625 | 37116 ft | 453 kts | 332° |
| 2026-04-17 08:09 | 33.62946 | 118.23441 | 37113 ft | 452 kts | 332° |
| 2026-04-17 08:10 | 33.68968 | 118.21253 | 37114 ft | 452 kts | 332° |
| 2026-04-17 08:10 | 33.74982 | 118.19064 | 37115 ft | 452 kts | 332° |
| 2026-04-17 08:11 | 33.80998 | 118.16873 | 37116 ft | 451 kts | 332° |
| 2026-04-17 08:11 | 33.87007 | 118.14685 | 37114 ft | 451 kts | 332° |
| 2026-04-17 08:12 | 33.93005 | 118.12507 | 37113 ft | 450 kts | 333° |
| 2026-04-17 08:12 | 33.98998 | 118.10331 | 37110 ft | 449 kts | 333° |
| 2026-04-17 08:13 | 34.04981 | 118.08152 | 37109 ft | 449 kts | 333° |
| 2026-04-17 08:14 | 34.13951 | 118.04885 | 37109 ft | 449 kts | 333° |
| 2026-04-17 08:14 | 34.19945 | 118.02712 | 37105 ft | 449 kts | 333° |
| 2026-04-17 08:15 | 34.25933 | 118.00531 | 37101 ft | 450 kts | 333° |
| 2026-04-17 08:15 | 34.31930 | 117.98352 | 37103 ft | 450 kts | 333° |
| 2026-04-17 08:16 | 34.37943 | 117.96213 | 37099 ft | 451 kts | 333° |
| 2026-04-17 08:16 | 34.43960 | 117.94088 | 37103 ft | 450 kts | 333° |
| 2026-04-17 08:17 | 34.49969 | 117.91945 | 37106 ft | 450 kts | 333° |
| 2026-04-17 08:17 | 34.55974 | 117.89792 | 37105 ft | 449 kts | 333° |
| 2026-04-17 08:18 | 34.61964 | 117.87639 | 37106 ft | 449 kts | 333° |
| 2026-04-17 08:18 | 34.67909 | 117.85502 | 37106 ft | 448 kts | 333° |
| 2026-04-17 08:19 | 34.73886 | 117.83347 | 37108 ft | 448 kts | 333° |
| 2026-04-17 08:19 | 34.79856 | 117.81201 | 37104 ft | 447 kts | 333° |
| 2026-04-17 08:20 | 34.85815 | 117.79047 | 37109 ft | 446 kts | 333° |
| 2026-04-17 08:20 | 34.91750 | 117.76858 | 37104 ft | 446 kts | 333° |
| 2026-04-17 08:21 | 34.97685 | 117.74675 | 37101 ft | 445 kts | 333° |
| 2026-04-17 08:21 | 35.02622 | 117.72868 | 37101 ft | 445 kts | 333° |
| 2026-04-17 08:22 | 35.09558 | 117.70330 | 37106 ft | 445 kts | 333° |
| 2026-04-17 08:22 | 35.14489 | 117.68525 | 37105 ft | 445 kts | 333° |
| 2026-04-17 08:23 | 35.20453 | 117.66335 | 37104 ft | 444 kts | 333° |
| 2026-04-17 08:23 | 35.26334 | 117.64175 | 37101 ft | 444 kts | 333° |
| 2026-04-17 08:24 | 35.32245 | 117.61996 | 37104 ft | 443 kts | 333° |
| 2026-04-17 08:24 | 35.38146 | 117.59813 | 37102 ft | 443 kts | 333° |
| 2026-04-17 08:25 | 35.44044 | 117.57627 | 37105 ft | 442 kts | 334° |
| 2026-04-17 08:25 | 35.49936 | 117.55449 | 37104 ft | 442 kts | 334° |
| 2026-04-17 08:26 | 35.55825 | 117.53272 | 37107 ft | 441 kts | 334° |
| 2026-04-17 08:26 | 35.61702 | 117.51092 | 37104 ft | 441 kts | 334° |
| 2026-04-17 08:27 | 35.67575 | 117.48915 | 37100 ft | 440 kts | 334° |
| 2026-04-17 08:27 | 35.73440 | 117.46727 | 37099 ft | 440 kts | 334° |
| 2026-04-17 08:28 | 35.79299 | 117.44540 | 37103 ft | 440 kts | 335° |
| 2026-04-17 08:28 | 35.85159 | 117.42361 | 37100 ft | 440 kts | 335° |
| 2026-04-17 08:29 | 35.91010 | 117.40176 | 37097 ft | 439 kts | 335° |
| 2026-04-17 08:29 | 35.96825 | 117.37996 | 37100 ft | 440 kts | 335° |
| 2026-04-17 08:30 | 36.02679 | 117.35798 | 37102 ft | 440 kts | 335° |
| 2026-04-17 08:30 | 36.08539 | 117.33630 | 37091 ft | 440 kts | 335° |
| 2026-04-17 08:31 | 36.14408 | 117.31472 | 37101 ft | 440 kts | 335° |
| 2026-04-17 08:31 | 36.20271 | 117.29301 | 37099 ft | 439 kts | 335° |
| 2026-04-17 08:32 | 36.26124 | 117.27125 | 37096 ft | 439 kts | 335° |
| 2026-04-17 08:32 | 36.31981 | 117.24947 | 37097 ft | 439 kts | 335° |
| 2026-04-17 08:33 | 36.37836 | 117.22778 | 37097 ft | 439 kts | 335° |
| 2026-04-17 08:33 | 36.43584 | 117.20376 | 37101 ft | 432 kts | 330° |
| 2026-04-17 08:34 | 36.49131 | 117.17495 | 37092 ft | 432 kts | 330° |
| 2026-04-17 08:34 | 36.54678 | 117.14610 | 37087 ft | 432 kts | 330° |
| 2026-04-17 08:35 | 36.60223 | 117.11726 | 37084 ft | 432 kts | 330° |
| 2026-04-17 08:35 | 36.65751 | 117.08838 | 37083 ft | 432 kts | 330° |
| 2026-04-17 08:36 | 36.71261 | 117.05956 | 37079 ft | 432 kts | 330° |
| 2026-04-17 08:36 | 36.76798 | 117.03058 | 37080 ft | 431 kts | 330° |
| 2026-04-17 08:37 | 36.82331 | 117.00157 | 37079 ft | 431 kts | 330° |
| 2026-04-17 08:37 | 36.87861 | 116.97259 | 37075 ft | 431 kts | 330° |
| 2026-04-17 08:38 | 36.93381 | 116.94361 | 37075 ft | 430 kts | 330° |
| 2026-04-17 08:38 | 36.98893 | 116.91455 | 37073 ft | 429 kts | 330° |
| 2026-04-17 08:39 | 37.04397 | 116.88555 | 37073 ft | 429 kts | 330° |
| 2026-04-17 08:39 | 37.09895 | 116.85654 | 37066 ft | 429 kts | 330° |
| 2026-04-17 08:40 | 37.15397 | 116.82745 | 37070 ft | 429 kts | 330° |
| 2026-04-17 08:40 | 37.20894 | 116.79834 | 37063 ft | 429 kts | 331° |
| 2026-04-17 08:41 | 37.26631 | 116.77537 | 37062 ft | 434 kts | 336° |
| 2026-04-17 08:41 | 37.32374 | 116.75373 | 37061 ft | 434 kts | 336° |
| 2026-04-17 08:42 | 37.38153 | 116.73198 | 37062 ft | 433 kts | 336° |
| 2026-04-17 08:42 | 37.43923 | 116.71010 | 37064 ft | 433 kts | 336° |
| 2026-04-17 08:43 | 37.49683 | 116.68817 | 37059 ft | 433 kts | 336° |
| 2026-04-17 08:43 | 37.55446 | 116.66625 | 37063 ft | 432 kts | 336° |
| 2026-04-17 08:44 | 37.61207 | 116.64439 | 37062 ft | 432 kts | 336° |
| 2026-04-17 08:44 | 37.66959 | 116.62245 | 37055 ft | 432 kts | 336° |
| 2026-04-17 08:45 | 37.72708 | 116.60056 | 37052 ft | 431 kts | 336° |
| 2026-04-17 08:45 | 37.78446 | 116.57859 | 37049 ft | 431 kts | 336° |
| 2026-04-17 08:46 | 37.84179 | 116.55666 | 37049 ft | 430 kts | 336° |
| 2026-04-17 08:46 | 37.89883 | 116.53484 | 37045 ft | 430 kts | 336° |
| 2026-04-17 08:47 | 37.95588 | 116.51253 | 37042 ft | 426 kts | 333° |
| 2026-04-17 08:47 | 38.00639 | 116.47647 | 37034 ft | 413 kts | 318° |
| 2026-04-17 08:48 | 38.05285 | 116.43367 | 37032 ft | 413 kts | 319° |
| 2026-04-17 08:48 | 38.09937 | 116.39107 | 36996 ft | 412 kts | 319° |
| 2026-04-17 08:48 | 38.12259 | 116.36981 | 36431 ft | 411 kts | 319° |
| 2026-04-17 08:49 | 38.14574 | 116.34856 | 35754 ft | 412 kts | 319° |
| 2026-04-17 08:49 | 38.16897 | 116.32718 | 35082 ft | 412 kts | 320° |
| 2026-04-17 08:49 | 38.19225 | 116.30578 | 34411 ft | 413 kts | 320° |
| 2026-04-17 08:49 | 38.21598 | 116.28521 | 33718 ft | 416 kts | 327° |
| 2026-04-17 08:50 | 38.24251 | 116.27007 | 32953 ft | 421 kts | 338° |
| 2026-04-17 08:50 | 38.27130 | 116.26194 | 32176 ft | 427 kts | 349° |
| 2026-04-17 08:50 | 38.30123 | 116.26143 | 31407 ft | 434 kts | 1° |
| 2026-04-17 08:50 | 38.33101 | 116.26870 | 30635 ft | 439 kts | 10° |
| 2026-04-17 08:51 | 38.36049 | 116.27886 | 29805 ft | 439 kts | 11° |
| 2026-04-17 08:51 | 38.38991 | 116.28905 | 28816 ft | 438 kts | 11° |
| 2026-04-17 08:51 | 38.41927 | 116.29919 | 28021 ft | 435 kts | 11° |
| 2026-04-17 08:51 | 38.44788 | 116.30903 | 27345 ft | 429 kts | 11° |
| 2026-04-17 08:52 | 38.47650 | 116.31890 | 26664 ft | 423 kts | 11° |
| 2026-04-17 08:52 | 38.50473 | 116.32862 | 25995 ft | 418 kts | 11° |
| 2026-04-17 08:52 | 38.53264 | 116.33823 | 25348 ft | 413 kts | 11° |
| 2026-04-17 08:52 | 38.56022 | 116.34775 | 24715 ft | 408 kts | 11° |
| 2026-04-17 08:53 | 38.58707 | 116.35951 | 24106 ft | 408 kts | 20° |
| 2026-04-17 08:53 | 38.61185 | 116.37724 | 23510 ft | 410 kts | 30° |
| 2026-04-17 08:53 | 38.63379 | 116.40049 | 22805 ft | 412 kts | 40° |
| 2026-04-17 08:53 | 38.65219 | 116.42870 | 22107 ft | 415 kts | 51° |
| 2026-04-17 08:54 | 38.66627 | 116.46101 | 21457 ft | 418 kts | 62° |
| 2026-04-17 08:54 | 38.67578 | 116.49619 | 20828 ft | 419 kts | 69° |
| 2026-04-17 08:54 | 38.68411 | 116.53175 | 20234 ft | 416 kts | 69° |
| 2026-04-17 08:54 | 38.69240 | 116.56707 | 19673 ft | 413 kts | 70° |
| 2026-04-17 08:55 | 38.70064 | 116.60218 | 19150 ft | 410 kts | 70° |
| 2026-04-17 08:55 | 38.70880 | 116.63704 | 18650 ft | 407 kts | 70° |
| 2026-04-17 08:55 | 38.71686 | 116.67169 | 18135 ft | 405 kts | 71° |
| 2026-04-17 08:55 | 38.72470 | 116.70571 | 17960 ft | 391 kts | 71° |
| 2026-04-17 08:56 | 38.73223 | 116.73863 | 17636 ft | 381 kts | 71° |
| 2026-04-17 08:56 | 38.73964 | 116.77103 | 17137 ft | 377 kts | 71° |
| 2026-04-17 08:56 | 38.74702 | 116.80311 | 16620 ft | 374 kts | 70° |
| 2026-04-17 08:56 | 38.75436 | 116.83498 | 16099 ft | 372 kts | 71° |
| 2026-04-17 08:57 | 38.76151 | 116.86621 | 15603 ft | 369 kts | 71° |
| 2026-04-17 08:57 | 38.76879 | 116.89804 | 15090 ft | 367 kts | 71° |
| 2026-04-17 08:57 | 38.77595 | 116.92931 | 14593 ft | 364 kts | 71° |
| 2026-04-17 08:57 | 38.78251 | 116.96016 | 14120 ft | 363 kts | 76° |
| 2026-04-17 08:58 | 38.78568 | 116.99225 | 13639 ft | 364 kts | 85° |
| 2026-04-17 08:58 | 38.78479 | 117.02460 | 13116 ft | 363 kts | 95° |
| 2026-04-17 08:58 | 38.77989 | 117.05623 | 12598 ft | 362 kts | 104° |
| 2026-04-17 08:58 | 38.77132 | 117.08645 | 12118 ft | 360 kts | 111° |
| 2026-04-17 08:59 | 38.76174 | 117.11592 | 11626 ft | 357 kts | 111° |
| 2026-04-17 08:59 | 38.75230 | 117.14520 | 11153 ft | 354 kts | 110° |
| 2026-04-17 08:59 | 38.74546 | 117.17519 | 10703 ft | 349 kts | 99° |
| 2026-04-17 08:59 | 38.74295 | 117.20561 | 10485 ft | 336 kts | 89° |
| 2026-04-17 09:00 | 38.74420 | 117.23487 | 10366 ft | 322 kts | 79° |
| 2026-04-17 09:00 | 38.74873 | 117.26230 | 10243 ft | 308 kts | 70° |
| 2026-04-17 09:00 | 38.75618 | 117.28746 | 10059 ft | 298 kts | 62° |
| 2026-04-17 09:00 | 38.76523 | 117.31117 | 9762 ft | 295 kts | 60° |
| 2026-04-17 09:01 | 38.77422 | 117.33467 | 9426 ft | 293 kts | 61° |
| 2026-04-17 09:01 | 38.78482 | 117.35661 | 9062 ft | 288 kts | 46° |
| 2026-04-17 09:01 | 38.79943 | 117.37362 | 8701 ft | 282 kts | 30° |
| 2026-04-17 09:01 | 38.81681 | 117.38466 | 8356 ft | 277 kts | 15° |
| 2026-04-17 09:02 | 38.83555 | 117.38921 | 8009 ft | 273 kts | 0° |
| 2026-04-17 09:02 | 38.85432 | 117.38722 | 7652 ft | 270 kts | 345° |
| 2026-04-17 09:02 | 38.87180 | 117.37908 | 7332 ft | 267 kts | 333° |
| 2026-04-17 09:02 | 38.88849 | 117.36871 | 6993 ft | 266 kts | 333° |
| 2026-04-17 09:03 | 38.90516 | 117.35836 | 6634 ft | 266 kts | 333° |
| 2026-04-17 09:03 | 38.92176 | 117.34804 | 6314 ft | 265 kts | 333° |
| 2026-04-17 09:03 | 38.93831 | 117.33774 | 5959 ft | 264 kts | 333° |
| 2026-04-17 09:03 | 38.95485 | 117.32742 | 5604 ft | 264 kts | 333° |
| 2026-04-17 09:04 | 38.97141 | 117.31712 | 5250 ft | 265 kts | 333° |
| 2026-04-17 09:04 | 38.98799 | 117.30678 | 4887 ft | 265 kts | 332° |
| 2026-04-17 09:04 | 39.00455 | 117.29642 | 4542 ft | 264 kts | 332° |
| 2026-04-17 09:04 | 39.02100 | 117.28600 | 4302 ft | 260 kts | 332° |
| 2026-04-17 09:05 | 39.03689 | 117.27588 | 4179 ft | 250 kts | 331° |
| 2026-04-17 09:05 | 39.05216 | 117.26618 | 4069 ft | 240 kts | 332° |
| 2026-04-17 09:05 | 39.06673 | 117.25692 | 4000 ft | 227 kts | 330° |
| 2026-04-17 09:05 | 39.08028 | 117.24829 | 4005 ft | 215 kts | 332° |
| 2026-04-17 09:06 | 39.09378 | 117.23966 | 4010 ft | 214 kts | 331° |
| 2026-04-17 09:06 | 39.10694 | 117.23124 | 4005 ft | 214 kts | 331° |
| 2026-04-17 09:06 | 39.12031 | 117.22271 | 3950 ft | 215 kts | 332° |
| 2026-04-17 09:06 | 39.13368 | 117.21417 | 3831 ft | 213 kts | 332° |
| 2026-04-17 09:07 | 39.14699 | 117.20566 | 3706 ft | 214 kts | 331° |
| 2026-04-17 09:07 | 39.16037 | 117.19708 | 3585 ft | 215 kts | 331° |
| 2026-04-17 09:07 | 39.17377 | 117.18847 | 3457 ft | 215 kts | 331° |
| 2026-04-17 09:07 | 39.18717 | 117.17988 | 3321 ft | 216 kts | 330° |
| 2026-04-17 09:08 | 39.20060 | 117.17125 | 3195 ft | 216 kts | 330° |
| 2026-04-17 09:08 | 39.21438 | 117.16416 | 3065 ft | 212 kts | 351° |
| 2026-04-17 09:08 | 39.22863 | 117.16667 | 2940 ft | 208 kts | 26° |
| 2026-04-17 09:08 | 39.23930 | 117.17865 | 2814 ft | 206 kts | 61° |
| 2026-04-17 09:09 | 39.24577 | 117.19509 | 2707 ft | 205 kts | 66° |
| 2026-04-17 09:09 | 39.25200 | 117.21159 | 2579 ft | 205 kts | 66° |
| 2026-04-17 09:09 | 39.25824 | 117.22804 | 2462 ft | 204 kts | 66° |
| 2026-04-17 09:09 | 39.26442 | 117.24427 | 2374 ft | 200 kts | 66° |
| 2026-04-17 09:10 | 39.26926 | 117.27732 | 2087 ft | 189 kts | 121° |
| 2026-04-17 09:10 | 39.26021 | 117.28851 | 1976 ft | 181 kts | 157° |
| 2026-04-17 09:10 | 39.24888 | 117.29557 | 1904 ft | 180 kts | 155° |
| 2026-04-17 09:11 | 39.23821 | 117.30278 | 1949 ft | 167 kts | 156° |
| 2026-04-17 09:11 | 39.22798 | 117.30930 | 1834 ft | 159 kts | 157° |
| 2026-04-17 09:11 | 39.21865 | 117.31513 | 1659 ft | 141 kts | 158° |
| 2026-04-17 09:11 | 39.21020 | 117.32036 | 1485 ft | 135 kts | 158° |
| 2026-04-17 09:12 | 39.20174 | 117.32557 | 1315 ft | 131 kts | 158° |
| 2026-04-17 09:12 | 39.19357 | 117.33059 | 1145 ft | 132 kts | 158° |
| 2026-04-17 09:12 | 39.18529 | 117.33568 | 977 ft | 132 kts | 159° |
| 2026-04-17 09:12 | 39.17703 | 117.34076 | 798 ft | 131 kts | 159° |
| 2026-04-17 09:13 | 39.16870 | 117.34587 | 638 ft | 134 kts | 157° |
| 2026-04-17 09:13 | 39.16031 | 117.35101 | 468 ft | 135 kts | 156° |
| 2026-04-17 09:13 | 39.15183 | 117.35620 | 268 ft | 134 kts | 155° |
| 2026-04-17 09:13 | 39.14339 | 117.36140 | 107 ft | 134 kts | 156° |
| 2026-04-17 09:14 | 39.13519 | 117.36637 | 20 ft | 117 kts | 155° |
| 2026-04-17 09:14 | 39.12946 | 117.36995 | 22 ft | 67 kts | 154° |
| 2026-04-17 09:14 | 39.12639 | 117.37180 | 20 ft | 43 kts | 154° |
| 2026-04-17 09:14 | 39.12484 | 117.37249 | 20 ft | 32 kts | 171° |
| 2026-04-17 09:15 | 39.12380 | 117.37252 | 19 ft | 7 kts | 181° |
| 2026-04-17 09:15 | 39.12321 | 117.37251 | 19 ft | 10 kts | 182° |
| 2026-04-17 09:15 | 39.12294 | 117.37173 | 20 ft | 13 kts | 294° |
| 2026-04-17 09:15 | 39.12345 | 117.37130 | 20 ft | 15 kts | 336° |
| 2026-04-17 09:16 | 39.12447 | 117.37068 | 19 ft | 18 kts | 335° |
| 2026-04-17 09:16 | 39.12569 | 117.36993 | 21 ft | 21 kts | 334° |
| 2026-04-17 09:16 | 39.12712 | 117.36905 | 19 ft | 24 kts | 334° |
| 2026-04-17 09:16 | 39.12838 | 117.36825 | 19 ft | 12 kts | 323° |
| 2026-04-17 09:17 | 39.12837 | 117.36718 | 21 ft | 15 kts | 244° |
| 2026-04-17 09:17 | 39.12788 | 117.36586 | 19 ft | 18 kts | 244° |
| 2026-04-17 09:17 | 39.12728 | 117.36429 | 19 ft | 21 kts | 244° |
| 2026-04-17 09:17 | 39.12676 | 117.36273 | 19 ft | 13 kts | 266° |
| 2026-04-17 09:18 | 39.12721 | 117.36172 | 19 ft | 13 kts | 303° |
| 2026-04-17 09:18 | 39.12742 | 117.36119 | 20 ft | 3 kts | 294° |
| 2026-04-17 09:18 | 39.12748 | 117.36078 | 19 ft | 6 kts | 263° |
| 2026-04-17 09:18 | 39.12713 | 117.36031 | 19 ft | 9 kts | 218° |
| 2026-04-17 09:19 | 39.12673 | 117.35990 | 20 ft | 0 kts | 218° |